Time,TemperatureF,DewpointF,PressureIn,WindDirection,WindDirectionDegrees,WindSpeedMPH,WindSpeedGustMPH,Humidity,HourlyPrecipIn,Conditions,Clouds,dailyrainin,SoftwareType,DateUTC
2013-01-11 00:00:00,59.0,58.7,30.27,ESE,112,5.0,12.0,99,0.00,,SKC,0.00,VWS V14.01,2013-01-11 05:00:00,
2013-01-11 01:00:00,59.1,58.8,30.27,ESE,112,3.0,13.0,99,0.00,,SKC,0.00,VWS V14.01,2013-01-11 06:00:00,
2013-01-11 02:00:00,59.6,59.3,30.25,ESE,112,3.0,11.0,99,0.00,,SKC,0.00,VWS V14.01,2013-01-11 07:00:00,
2013-01-11 03:00:00,59.5,59.5,30.24,SE,135,4.0,10.0,100,0.00,,SKC,0.00,VWS V14.01,2013-01-11 08:00:00,
2013-01-11 04:00:00,59.4,59.4,30.22,ESE,112,3.0,11.0,100,0.00,,SKC,0.00,VWS V14.01,2013-01-11 09:00:00,
2013-01-11 05:00:00,59.3,59.3,30.21,ESE,112,3.0,10.0,100,0.00,,SKC,0.00,VWS V14.01,2013-01-11 10:00:00,
2013-01-11 06:00:00,59.3,59.3,30.21,ESE,112,3.0,10.0,100,0.00,,SKC,0.00,VWS V14.01,2013-01-11 11:00:00,
2013-01-11 07:00:00,59.9,59.9,30.23,ESE,111,3.0,8.0,100,0.00,,SKC,0.00,VWS V14.01,2013-01-11 12:00:00,
2013-01-11 07:13:00,59.3,59.3,30.21,ESE,112,3.0,10.0,100,0.00,,SKC,0.00,VWS V14.01,2013-01-11 12:13:00,
2013-01-11 07:14:00,59.9,59.9,30.23,SE,136,1.0,3.0,100,0.00,,SKC,0.00,VWS V14.01,2013-01-11 12:14:00,
2013-01-11 07:19:00,59.9,59.9,30.23,SE,131,2.0,5.0,100,0.00,,SKC,0.00,VWS V14.01,2013-01-11 12:19:00,
2013-01-11 07:24:00,59.9,59.9,30.23,ESE,121,1.0,5.0,100,0.00,,SKC,0.00,VWS V14.01,2013-01-11 12:24:00,
2013-01-11 07:29:00,59.9,59.9,30.23,SE,134,6.0,6.0,100,0.00,,SKC,0.00,VWS V14.01,2013-01-11 12:29:00,
2013-01-11 07:34:00,60.0,60.0,30.23,SSE,149,2.0,6.0,100,0.00,,SKC,0.00,VWS V14.01,2013-01-11 12:34:00,
2013-01-11 07:39:00,60.0,60.0,30.23,SE,145,3.0,6.0,100,0.00,,SKC,0.00,VWS V14.01,2013-01-11 12:39:00,
2013-01-11 07:44:00,60.0,60.0,30.23,South,169,3.0,6.0,100,0.00,,SKC,0.00,VWS V14.01,2013-01-11 12:44:00,
2013-01-11 07:49:00,60.0,60.0,30.23,SE,138,0.0,6.0,100,0.00,,SKC,0.00,VWS V14.01,2013-01-11 12:49:00,
2013-01-11 07:54:00,60.0,60.0,30.23,ESE,123,4.0,8.0,100,0.00,,SKC,0.00,VWS V14.01,2013-01-11 12:54:00,
2013-01-11 07:59:00,59.9,59.9,30.23,SE,128,1.0,8.0,100,0.00,,SKC,0.00,VWS V14.01,2013-01-11 12:59:00,
2013-01-11 08:00:00,60.0,60.0,30.25,SE,135,2.0,7.0,100,0.00,,SKC,0.00,VWS V14.01,2013-01-11 13:00:00,
2013-01-11 08:04:00,59.8,59.8,30.23,SE,128,4.0,4.0,100,0.00,,SKC,0.00,VWS V14.01,2013-01-11 13:04:00,
2013-01-11 09:00:00,60.5,60.5,30.25,SSE,158,3.0,9.0,100,0.00,,SKC,0.00,VWS V14.01,2013-01-11 14:00:00,
2013-01-11 10:00:00,62.0,62.0,30.24,SSE,158,3.0,10.0,100,0.00,,SKC,0.00,VWS V14.01,2013-01-11 15:00:00,
2013-01-11 11:00:00,63.3,63.3,30.19,South,180,4.0,13.0,100,0.00,,-RA,0.00,VWS V14.01,2013-01-11 16:00:00,
2013-01-11 12:00:00,66.5,66.5,30.16,SE,135,4.0,15.0,100,0.00,,SKC,0.00,VWS V14.01,2013-01-11 17:00:00,
2013-01-11 13:00:00,69.0,65.9,30.14,South,180,4.0,14.0,90,0.00,,-RA,0.00,VWS V14.01,2013-01-11 18:00:00,
2013-01-11 14:00:00,71.3,66.2,30.13,SSW,202,3.0,12.0,84,0.00,,SKC,0.00,VWS V14.01,2013-01-11 19:00:00,
2013-01-11 15:00:00,71.3,66.2,30.13,SSW,202,3.0,12.0,84,0.00,,SKC,0.00,VWS V14.01,2013-01-11 20:00:00,
2013-01-11 16:00:00,71.4,65.3,30.12,SSW,204,1.0,10.0,81,0.00,,SKC,0.00,VWS V14.01,2013-01-11 21:00:00,
2013-01-11 16:02:00,71.3,66.2,30.13,SSW,202,3.0,12.0,84,0.00,,SKC,0.00,VWS V14.01,2013-01-11 21:02:00,
2013-01-11 16:07:00,72.5,66.0,30.13,SW,227,3.0,8.0,80,0.00,,SKC,0.00,VWS V14.01,2013-01-11 21:07:00,
2013-01-11 16:12:00,72.4,65.9,30.13,South,169,0.0,8.0,80,0.00,,SKC,0.00,VWS V14.01,2013-01-11 21:12:00,
2013-01-11 16:17:00,72.2,65.7,30.12,South,175,3.0,8.0,80,0.00,,SKC,0.00,VWS V14.01,2013-01-11 21:17:00,
2013-01-11 16:22:00,72.3,65.8,30.12,South,184,1.0,8.0,80,0.00,,SKC,0.00,VWS V14.01,2013-01-11 21:22:00,
2013-01-11 16:27:00,72.1,65.6,30.12,South,175,0.0,10.0,80,0.00,,SKC,0.00,VWS V14.01,2013-01-11 21:27:00,
2013-01-11 16:32:00,72.0,65.9,30.12,South,180,3.0,10.0,81,0.00,,SKC,0.00,VWS V14.01,2013-01-11 21:32:00,
2013-01-11 16:37:00,72.1,65.9,30.12,South,170,0.0,10.0,81,0.00,,SKC,0.00,VWS V14.01,2013-01-11 21:37:00,
2013-01-11 16:42:00,72.2,65.7,30.12,South,173,0.0,10.0,80,0.00,,SKC,0.00,VWS V14.01,2013-01-11 21:42:00,
2013-01-11 16:47:00,72.1,65.6,30.12,South,188,0.0,10.0,80,0.00,,SKC,0.00,VWS V14.01,2013-01-11 21:47:00,
2013-01-11 16:52:00,71.8,65.3,30.12,SSW,200,4.0,10.0,80,0.00,,SKC,0.00,VWS V14.01,2013-01-11 21:52:00,
2013-01-11 16:57:00,71.6,65.5,30.12,SSW,204,0.0,10.0,81,0.00,,SKC,0.00,VWS V14.01,2013-01-11 21:57:00,
2013-01-11 17:00:00,69.2,64.8,30.12,SSE,150,0.0,4.0,86,0.00,,SKC,0.00,VWS V14.01,2013-01-11 22:00:00,
2013-01-11 17:02:00,71.3,65.2,30.13,SSW,204,0.0,2.0,81,0.00,,SKC,0.00,VWS V14.01,2013-01-11 22:02:00,
2013-01-11 17:07:00,71.3,65.5,30.12,SSW,200,0.0,4.0,82,0.00,,SKC,0.00,VWS V14.01,2013-01-11 22:07:00,
2013-01-11 17:12:00,71.1,65.3,30.12,SSW,200,1.0,4.0,82,0.00,,SKC,0.00,VWS V14.01,2013-01-11 22:12:00,
2013-01-11 17:17:00,71.0,65.6,30.12,South,174,0.0,4.0,83,0.00,,SKC,0.00,VWS V14.01,2013-01-11 22:17:00,
2013-01-11 17:22:00,70.7,65.3,30.12,SSE,161,2.0,4.0,83,0.00,,SKC,0.00,VWS V14.01,2013-01-11 22:22:00,
2013-01-11 17:27:00,70.5,65.4,30.12,SSE,161,2.0,4.0,84,0.00,,SKC,0.00,VWS V14.01,2013-01-11 22:27:00,
2013-01-11 17:32:00,70.4,65.3,30.12,SSE,161,2.0,4.0,84,0.00,,SKC,0.00,VWS V14.01,2013-01-11 22:32:00,
2013-01-11 17:37:00,70.1,65.1,30.12,SSE,161,0.0,4.0,84,0.00,,SKC,0.00,VWS V14.01,2013-01-11 22:37:00,
2013-01-11 17:42:00,69.9,65.2,30.12,SSE,151,2.0,4.0,85,0.00,,SKC,0.00,VWS V14.01,2013-01-11 22:42:00,
2013-01-11 17:47:00,69.8,65.1,30.11,SSE,147,3.0,4.0,85,0.00,,SKC,0.00,VWS V14.01,2013-01-11 22:47:00,
2013-01-11 17:52:00,69.6,64.9,30.12,SSE,149,0.0,4.0,85,0.00,,SKC,0.00,VWS V14.01,2013-01-11 22:52:00,
2013-01-11 17:57:00,69.4,64.7,30.12,SSE,150,0.0,4.0,85,0.00,,SKC,0.00,VWS V14.01,2013-01-11 22:57:00,
2013-01-11 18:00:00,67.7,64.3,30.13,SSW,204,0.0,4.0,89,0.00,,SKC,0.00,VWS V14.01,2013-01-11 23:00:00,
2013-01-11 18:02:00,69.1,64.7,30.12,SSE,150,0.0,0.0,86,0.00,,SKC,0.00,VWS V14.01,2013-01-11 23:02:00,
2013-01-11 18:07:00,68.9,64.6,30.12,SSE,150,0.0,2.0,86,0.00,,SKC,0.00,VWS V14.01,2013-01-11 23:07:00,
2013-01-11 18:12:00,68.8,64.8,30.12,SSE,150,1.0,2.0,87,0.00,,SKC,0.00,VWS V14.01,2013-01-11 23:12:00,
2013-01-11 18:17:00,68.7,64.7,30.12,SSE,150,0.0,2.0,87,0.00,,SKC,0.00,VWS V14.01,2013-01-11 23:17:00,
2013-01-11 18:22:00,68.6,64.6,30.12,SSE,150,0.0,2.0,87,0.00,,SKC,0.00,VWS V14.01,2013-01-11 23:22:00,
2013-01-11 18:27:00,68.5,64.5,30.13,SSE,149,0.0,2.0,87,0.00,,SKC,0.00,VWS V14.01,2013-01-11 23:27:00,
2013-01-11 18:32:00,68.4,64.4,30.13,SSE,150,0.0,2.0,87,0.00,,SKC,0.00,VWS V14.01,2013-01-11 23:32:00,
2013-01-11 18:37:00,68.3,64.6,30.13,SSE,150,0.0,2.0,88,0.00,,SKC,0.00,VWS V14.01,2013-01-11 23:37:00,
2013-01-11 18:42:00,68.1,64.4,30.13,SSE,150,0.0,2.0,88,0.00,,SKC,0.00,VWS V14.01,2013-01-11 23:42:00,
2013-01-11 18:47:00,68.0,64.6,30.13,SSE,150,0.0,2.0,89,0.00,,SKC,0.00,VWS V14.01,2013-01-11 23:47:00,
2013-01-11 18:52:00,67.9,64.2,30.13,SSE,150,1.0,2.0,88,0.00,,SKC,0.00,VWS V14.01,2013-01-11 23:52:00,
2013-01-11 18:57:00,67.8,64.4,30.13,SSW,204,3.0,4.0,89,0.00,,SKC,0.00,VWS V14.01,2013-01-11 23:57:00,
2013-01-11 19:00:00,66.8,64.4,30.14,SSE,162,0.0,3.0,92,0.00,,-RA,0.00,VWS V14.01,2013-01-12 00:00:00,
2013-01-11 19:02:00,67.6,64.2,30.13,SSW,204,0.0,2.0,89,0.00,,SKC,0.00,VWS V14.01,2013-01-12 00:02:00,
2013-01-11 19:07:00,67.5,64.5,30.13,SSW,204,0.0,2.0,90,0.00,,SKC,0.00,VWS V14.01,2013-01-12 00:07:00,
2013-01-11 19:12:00,67.4,64.4,30.13,SSE,162,0.0,3.0,90,0.00,,SKC,0.00,VWS V14.01,2013-01-12 00:12:00,
2013-01-11 19:17:00,67.4,64.4,30.13,SSE,162,0.0,3.0,90,0.00,,SKC,0.00,VWS V14.01,2013-01-12 00:17:00,
2013-01-11 19:22:00,67.3,64.6,30.14,SSE,162,0.0,3.0,91,0.00,,SKC,0.00,VWS V14.01,2013-01-12 00:22:00,
2013-01-11 19:27:00,67.3,64.6,30.14,SSE,162,0.0,3.0,91,0.00,,SKC,0.00,VWS V14.01,2013-01-12 00:27:00,
2013-01-11 19:32:00,67.2,64.5,30.14,SSE,162,0.0,3.0,91,0.00,,SKC,0.00,VWS V14.01,2013-01-12 00:32:00,
2013-01-11 19:37:00,67.2,64.5,30.14,SSE,162,0.0,3.0,91,0.00,,SKC,0.00,VWS V14.01,2013-01-12 00:37:00,
2013-01-11 19:42:00,67.1,64.4,30.14,SSE,162,0.0,3.0,91,0.00,,SKC,0.00,VWS V14.01,2013-01-12 00:42:00,
2013-01-11 19:47:00,67.0,64.6,30.14,SSE,162,0.0,3.0,92,0.00,,SKC,0.00,VWS V14.01,2013-01-12 00:47:00,
2013-01-11 19:52:00,67.0,64.6,30.14,SSE,162,0.0,3.0,92,0.00,,SKC,0.00,VWS V14.01,2013-01-12 00:52:00,
2013-01-11 19:57:00,66.9,64.5,30.14,SSE,162,0.0,3.0,92,0.00,,SKC,0.00,VWS V14.01,2013-01-12 00:57:00,
2013-01-11 20:00:00,66.8,64.4,30.14,South,182,0.0,3.0,92,0.00,,SKC,0.00,VWS V14.01,2013-01-12 01:00:00,
2013-01-11 20:02:00,66.8,64.4,30.14,SSE,162,0.0,0.0,92,0.00,,SKC,0.00,VWS V14.01,2013-01-12 01:02:00,
2013-01-11 20:07:00,66.8,64.4,30.14,SSE,162,0.0,2.0,92,0.00,,SKC,0.00,VWS V14.01,2013-01-12 01:07:00,
2013-01-11 20:12:00,66.8,64.4,30.14,South,182,0.0,3.0,92,0.00,,SKC,0.00,VWS V14.01,2013-01-12 01:12:00,
2013-01-11 20:17:00,66.7,64.3,30.14,South,182,0.0,3.0,92,0.00,,SKC,0.00,VWS V14.01,2013-01-12 01:17:00,
2013-01-11 20:22:00,66.7,64.3,30.14,South,182,1.0,3.0,92,0.00,,SKC,0.00,VWS V14.01,2013-01-12 01:22:00,
2013-01-11 20:27:00,66.8,64.4,30.14,South,182,0.0,3.0,92,0.00,,SKC,0.00,VWS V14.01,2013-01-12 01:27:00,
2013-01-11 20:32:00,66.8,64.4,30.14,South,182,0.0,3.0,92,0.00,,SKC,0.00,VWS V14.01,2013-01-12 01:32:00,
2013-01-11 20:37:00,66.9,64.5,30.14,South,182,0.0,3.0,92,0.00,,SKC,0.00,VWS V14.01,2013-01-12 01:37:00,
2013-01-11 20:42:00,66.9,64.5,30.15,South,182,0.0,3.0,92,0.00,,SKC,0.00,VWS V14.01,2013-01-12 01:42:00,
2013-01-11 20:47:00,66.9,64.5,30.15,South,182,0.0,3.0,92,0.00,,SKC,0.00,VWS V14.01,2013-01-12 01:47:00,
2013-01-11 20:52:00,66.8,64.4,30.15,South,182,0.0,3.0,92,0.00,,SKC,0.00,VWS V14.01,2013-01-12 01:52:00,
2013-01-11 20:57:00,66.8,64.4,30.15,South,182,0.0,3.0,92,0.00,,SKC,0.00,VWS V14.01,2013-01-12 01:57:00,
2013-01-11 21:00:00,66.5,64.4,30.15,South,188,1.0,6.0,93,0.00,,SKC,0.00,VWS V14.01,2013-01-12 02:00:00,
2013-01-11 21:02:00,66.8,64.4,30.14,South,182,0.0,0.0,92,0.00,,SKC,0.00,VWS V14.01,2013-01-12 02:02:00,
2013-01-11 21:07:00,66.7,64.3,30.14,South,182,0.0,1.0,92,0.00,,SKC,0.00,VWS V14.01,2013-01-12 02:07:00,
2013-01-11 21:12:00,66.7,64.3,30.15,South,182,0.0,1.0,92,0.00,,SKC,0.00,VWS V14.01,2013-01-12 02:12:00,
2013-01-11 21:17:00,66.6,64.2,30.15,South,182,0.0,4.0,92,0.00,,SKC,0.00,VWS V14.01,2013-01-12 02:17:00,
2013-01-11 21:22:00,66.6,64.2,30.15,South,183,0.0,4.0,92,0.00,,SKC,0.00,VWS V14.01,2013-01-12 02:22:00,
2013-01-11 21:27:00,66.5,64.4,30.15,South,183,0.0,4.0,93,0.00,,SKC,0.00,VWS V14.01,2013-01-12 02:27:00,
2013-01-11 21:32:00,66.4,64.3,30.15,South,186,1.0,4.0,93,0.00,,SKC,0.00,VWS V14.01,2013-01-12 02:32:00,
2013-01-11 21:37:00,66.5,64.4,30.15,SW,225,0.0,4.0,93,0.00,,SKC,0.00,VWS V14.01,2013-01-12 02:37:00,
2013-01-11 21:42:00,66.5,64.4,30.15,SW,225,1.0,4.0,93,0.00,,SKC,0.00,VWS V14.01,2013-01-12 02:42:00,
2013-01-11 21:47:00,66.5,64.4,30.15,SSW,192,3.0,6.0,93,0.00,,SKC,0.00,VWS V14.01,2013-01-12 02:47:00,
2013-01-11 21:52:00,66.5,64.4,30.15,SSW,192,1.0,6.0,93,0.00,,SKC,0.00,VWS V14.01,2013-01-12 02:52:00,
2013-01-11 21:57:00,66.5,64.4,30.15,South,189,1.0,6.0,93,0.00,,SKC,0.00,VWS V14.01,2013-01-12 02:57:00,
2013-01-11 22:00:00,66.1,64.0,30.15,SSW,211,1.0,6.0,93,0.00,,SKC,0.00,VWS V14.01,2013-01-12 03:00:00,
2013-01-11 22:02:00,66.4,64.0,30.15,SW,216,2.0,5.0,92,0.00,,SKC,0.00,VWS V14.01,2013-01-12 03:02:00,
2013-01-11 22:07:00,66.4,64.0,30.14,South,186,4.0,5.0,92,0.00,,SKC,0.00,VWS V14.01,2013-01-12 03:07:00,
2013-01-11 22:12:00,66.3,64.2,30.15,SSW,213,0.0,5.0,93,0.00,,SKC,0.00,VWS V14.01,2013-01-12 03:12:00,
2013-01-11 22:17:00,66.3,64.2,30.15,SSW,193,0.0,5.0,93,0.00,,SKC,0.00,VWS V14.01,2013-01-12 03:17:00,
2013-01-11 22:22:00,66.3,64.2,30.15,SSW,193,1.0,5.0,93,0.00,,SKC,0.00,VWS V14.01,2013-01-12 03:22:00,
2013-01-11 22:27:00,66.3,64.2,30.15,SSW,193,0.0,5.0,93,0.00,,SKC,0.00,VWS V14.01,2013-01-12 03:27:00,
2013-01-11 22:32:00,66.3,64.2,30.15,SSW,207,0.0,5.0,93,0.00,,SKC,0.00,VWS V14.01,2013-01-12 03:32:00,
2013-01-11 22:37:00,66.2,64.1,30.15,SSW,207,1.0,5.0,93,0.00,,SKC,0.00,VWS V14.01,2013-01-12 03:37:00,
2013-01-11 22:42:00,66.2,64.1,30.15,SSW,207,0.0,5.0,93,0.00,,SKC,0.00,VWS V14.01,2013-01-12 03:42:00,
2013-01-11 22:47:00,66.1,64.0,30.15,South,191,1.0,5.0,93,0.00,,SKC,0.00,VWS V14.01,2013-01-12 03:47:00,
2013-01-11 22:52:00,66.1,64.0,30.15,SSW,198,0.0,5.0,93,0.00,,SKC,0.00,VWS V14.01,2013-01-12 03:52:00,
2013-01-11 22:57:00,66.1,64.0,30.15,SSW,196,1.0,5.0,93,0.00,,SKC,0.00,VWS V14.01,2013-01-12 03:57:00,
2013-01-11 23:00:00,66.2,63.8,30.14,WSW,243,1.0,10.0,92,0.00,,SKC,0.00,VWS V14.01,2013-01-12 04:00:00,
2013-01-11 23:02:00,66.1,64.0,30.15,South,188,0.0,3.0,93,0.00,,SKC,0.00,VWS V14.01,2013-01-12 04:02:00,
2013-01-11 23:07:00,66.1,64.0,30.15,South,186,2.0,3.0,93,0.00,,SKC,0.00,VWS V14.01,2013-01-12 04:07:00,
2013-01-11 23:12:00,66.1,64.0,30.15,SW,221,1.0,6.0,93,0.00,,SKC,0.00,VWS V14.01,2013-01-12 04:12:00,
2013-01-11 23:17:00,66.0,63.9,30.14,South,178,5.0,6.0,93,0.00,,SKC,0.00,VWS V14.01,2013-01-12 04:17:00,
2013-01-11 23:22:00,66.1,64.0,30.14,South,184,2.0,9.0,93,0.00,,SKC,0.00,VWS V14.01,2013-01-12 04:22:00,
2013-01-11 23:27:00,66.1,64.0,30.14,SSW,209,4.0,9.0,93,0.00,,SKC,0.00,VWS V14.01,2013-01-12 04:27:00,
2013-01-11 23:32:00,66.1,64.0,30.14,SW,216,1.0,9.0,93,0.00,,SKC,0.00,VWS V14.01,2013-01-12 04:32:00,
2013-01-11 23:37:00,66.1,64.0,30.14,SSW,209,2.0,9.0,93,0.00,,SKC,0.00,VWS V14.01,2013-01-12 04:37:00,
2013-01-11 23:42:00,66.1,64.0,30.14,South,174,1.0,9.0,93,0.00,,SKC,0.00,VWS V14.01,2013-01-12 04:42:00,
2013-01-11 23:47:00,66.1,64.0,30.14,South,180,3.0,9.0,93,0.00,,SKC,0.00,VWS V14.01,2013-01-12 04:47:00,
2013-01-11 23:52:00,66.1,64.0,30.14,SW,225,2.0,10.0,93,0.00,,SKC,0.00,VWS V14.01,2013-01-12 04:52:00,
2013-01-11 23:57:00,66.2,64.1,30.14,SW,229,6.0,10.0,93,0.00,,SKC,0.00,VWS V14.01,2013-01-12 04:57:00,